createdAt,value
2018-03-22T00:00:08.287Z,77.80
2018-03-22T00:02:36.526Z,77.80
2018-03-22T00:05:04.672Z,77.80
2018-03-22T00:07:32.871Z,77.70
2018-03-22T00:10:00.989Z,77.80
2018-03-22T00:12:29.581Z,77.80
2018-03-22T00:14:57.701Z,77.70
2018-03-22T00:17:25.846Z,77.70
2018-03-22T00:19:54.042Z,77.70
2018-03-22T00:22:38.997Z,77.50
2018-03-22T00:25:07.272Z,77.50
2018-03-22T00:27:35.485Z,77.50
2018-03-22T00:30:03.726Z,77.50
2018-03-22T00:32:31.918Z,77.50
2018-03-22T00:35:00.067Z,77.40
2018-03-22T00:37:28.190Z,77.50
2018-03-22T00:39:56.396Z,77.40
2018-03-22T00:42:24.502Z,77.40
2018-03-22T00:44:52.622Z,78.30
2018-03-22T00:47:20.760Z,77.40
2018-03-22T00:49:48.876Z,77.30
2018-03-22T00:52:17.875Z,77.40
2018-03-22T00:54:46.106Z,77.30
2018-03-22T00:57:14.224Z,77.30
2018-03-22T00:59:42.361Z,77.40
2018-03-22T01:02:10.839Z,77.60
2018-03-22T01:04:39.553Z,77.50
2018-03-22T01:07:07.688Z,77.50
2018-03-22T01:09:36.061Z,77.50
2018-03-22T01:12:04.277Z,77.30
2018-03-22T01:14:32.981Z,77.40
2018-03-22T01:17:01.109Z,77.30
2018-03-22T01:19:29.283Z,77.20
2018-03-22T01:21:57.421Z,77.20
2018-03-22T01:24:25.535Z,77.10
2018-03-22T01:26:53.667Z,77.00
2018-03-22T01:29:21.780Z,77.00
2018-03-22T01:31:49.934Z,76.90
2018-03-22T01:34:18.087Z,76.90
2018-03-22T01:36:46.387Z,76.90
2018-03-22T01:39:14.671Z,76.90
2018-03-22T01:41:42.894Z,76.80
2018-03-22T01:44:11.050Z,76.80
2018-03-22T01:46:39.156Z,76.90
2018-03-22T01:49:07.284Z,76.90
2018-03-22T01:51:35.388Z,76.80
2018-03-22T01:54:04.124Z,76.70
2018-03-22T01:56:32.366Z,76.80
2018-03-22T01:59:00.614Z,76.80
2018-03-22T02:01:29.504Z,77.00
2018-03-22T02:03:57.652Z,76.80
2018-03-22T02:06:25.774Z,76.90
2018-03-22T02:08:53.942Z,76.80
2018-03-22T02:11:22.048Z,76.80
2018-03-22T02:13:50.155Z,76.80
2018-03-22T02:16:18.324Z,76.70
2018-03-22T02:18:46.565Z,76.70
2018-03-22T02:21:14.659Z,76.70
2018-03-22T02:23:42.794Z,76.60
2018-03-22T02:26:10.907Z,76.60
2018-03-22T02:28:39.017Z,76.60
2018-03-22T02:31:07.201Z,76.60
2018-03-22T02:33:35.339Z,76.50
2018-03-22T02:36:03.463Z,76.50
2018-03-22T02:38:31.656Z,76.40
2018-03-22T02:40:59.887Z,76.30
2018-03-22T02:43:28.126Z,76.30
2018-03-22T02:45:56.408Z,76.40
2018-03-22T02:48:24.588Z,76.30
2018-03-22T02:50:52.809Z,76.30
2018-03-22T02:53:20.995Z,76.20
2018-03-22T02:55:49.130Z,76.30
2018-03-22T02:58:17.264Z,76.40
2018-03-22T03:00:45.928Z,76.30
2018-03-22T03:03:14.042Z,76.30
2018-03-22T03:05:42.272Z,76.20
2018-03-22T03:08:10.451Z,76.10
2018-03-22T03:10:38.576Z,76.00
2018-03-22T03:13:07.532Z,75.90
2018-03-22T03:15:35.670Z,75.90
2018-03-22T03:18:04.253Z,75.90
2018-03-22T03:20:32.373Z,75.90
2018-03-22T03:23:00.530Z,75.90
2018-03-22T03:25:28.672Z,75.80
2018-03-22T03:27:56.832Z,75.80
2018-03-22T03:30:25.024Z,75.80
2018-03-22T03:32:53.140Z,75.60
2018-03-22T03:35:21.262Z,75.60
2018-03-22T03:37:49.376Z,75.70
2018-03-22T03:40:17.489Z,75.80
2018-03-22T03:42:45.623Z,75.80
2018-03-22T03:45:13.746Z,75.80
2018-03-22T03:47:41.861Z,75.70
2018-03-22T03:50:09.984Z,75.60
2018-03-22T03:52:38.237Z,75.60
2018-03-22T03:55:06.433Z,75.60
2018-03-22T03:57:34.555Z,75.60
2018-03-22T04:00:02.711Z,75.60
2018-03-22T04:02:30.831Z,75.70
2018-03-22T04:04:58.955Z,75.70
2018-03-22T04:07:27.197Z,75.70
2018-03-22T04:09:55.317Z,75.90
2018-03-22T04:12:23.429Z,75.90
2018-03-22T04:14:52.345Z,75.80
2018-03-22T04:17:20.469Z,75.80
2018-03-22T04:19:48.605Z,75.70
2018-03-22T04:22:16.865Z,75.70
2018-03-22T04:24:44.989Z,75.80
2018-03-22T04:27:13.934Z,75.70
2018-03-22T04:29:42.051Z,75.70
2018-03-22T04:32:10.195Z,75.80
2018-03-22T04:34:38.353Z,75.90
2018-03-22T04:37:06.479Z,75.90
2018-03-22T04:39:34.977Z,76.00
2018-03-22T04:42:03.124Z,76.00
2018-03-22T04:44:31.227Z,76.10
2018-03-22T04:46:59.368Z,76.00
2018-03-22T04:49:27.469Z,76.00
2018-03-22T04:51:55.631Z,75.90
2018-03-22T04:54:23.768Z,75.80
2018-03-22T04:56:51.896Z,76.50
2018-03-22T04:59:20.080Z,75.70
2018-03-22T05:01:48.187Z,75.60
2018-03-22T05:04:16.442Z,75.70
2018-03-22T05:06:48.776Z,75.70
2018-03-22T05:09:17.680Z,75.90
2018-03-22T05:11:45.811Z,75.90
2018-03-22T05:14:13.996Z,75.90
2018-03-22T05:16:42.124Z,75.70
2018-03-22T05:19:10.252Z,75.80
2018-03-22T05:21:38.488Z,76.00
2018-03-22T05:24:07.435Z,76.00
2018-03-22T05:26:35.550Z,76.10
2018-03-22T05:29:04.358Z,76.30
2018-03-22T05:31:44.446Z,76.20
2018-03-22T05:34:14.215Z,76.30
2018-03-22T05:36:42.356Z,76.30
2018-03-22T05:39:10.444Z,76.40
2018-03-22T05:44:34.384Z,76.40
2018-03-22T05:47:02.479Z,76.50
2018-03-22T05:49:30.617Z,76.50
2018-03-22T05:51:58.778Z,76.50
2018-03-22T05:54:26.923Z,76.70
2018-03-22T05:56:55.087Z,76.80
2018-03-22T05:59:23.193Z,76.70
2018-03-22T06:01:51.336Z,76.80
2018-03-22T06:04:19.439Z,76.90
2018-03-22T06:06:47.560Z,77.00
2018-03-22T06:09:15.687Z,77.10
2018-03-22T06:11:44.325Z,77.20
2018-03-22T06:14:13.160Z,77.20
2018-03-22T06:16:41.439Z,77.20
2018-03-22T06:19:09.552Z,77.20
2018-03-22T06:21:37.658Z,77.20
2018-03-22T06:24:05.786Z,77.30
2018-03-22T06:26:33.956Z,77.20
2018-03-22T06:29:02.129Z,77.30
2018-03-22T06:31:30.271Z,77.30
2018-03-22T06:33:58.421Z,77.40
2018-03-22T06:36:26.568Z,77.60
2018-03-22T06:38:54.687Z,77.80
2018-03-22T06:41:22.913Z,77.70
2018-03-22T06:43:51.026Z,77.70
2018-03-22T06:46:19.253Z,77.80
2018-03-22T06:48:48.149Z,77.80
2018-03-22T06:51:16.282Z,77.90
2018-03-22T06:53:44.480Z,78.00
2018-03-22T06:56:12.607Z,78.10
2018-03-22T06:58:40.738Z,78.20
2018-03-22T07:01:08.849Z,78.40
2018-03-22T07:03:37.092Z,78.40
2018-03-22T07:06:05.261Z,78.40
2018-03-22T07:08:33.391Z,78.50
2018-03-22T07:11:01.548Z,78.70
2018-03-22T07:13:29.688Z,78.70
2018-03-22T07:15:57.822Z,78.70
2018-03-22T07:18:25.917Z,78.80
2018-03-22T07:20:54.049Z,78.90
2018-03-22T07:23:26.315Z,78.90
2018-03-22T07:25:55.413Z,79.00
2018-03-22T07:28:35.592Z,79.20
2018-03-22T07:31:04.246Z,79.10
2018-03-22T07:33:32.394Z,78.90
2018-03-22T07:36:00.639Z,78.80
2018-03-22T07:38:28.747Z,78.90
2018-03-22T07:40:56.899Z,79.10
2018-03-22T07:43:34.892Z,79.20
2018-03-22T07:46:03.025Z,79.30
2018-03-22T07:48:31.130Z,79.30
2018-03-22T07:50:59.240Z,79.50
2018-03-22T07:53:27.346Z,79.40
2018-03-22T07:55:55.496Z,79.50
2018-03-22T07:58:23.742Z,79.30
2018-03-22T08:00:51.980Z,79.30
2018-03-22T08:03:20.574Z,79.50
2018-03-22T08:05:49.529Z,79.70
2018-03-22T08:08:17.617Z,79.70
2018-03-22T08:10:45.738Z,79.20
2018-03-22T08:13:13.838Z,79.20
2018-03-22T08:15:42.510Z,79.40
2018-03-22T08:18:10.676Z,79.50
2018-03-22T08:20:38.954Z,79.10
2018-03-22T08:23:07.185Z,78.80
2018-03-22T08:25:36.094Z,78.30
2018-03-22T08:28:04.187Z,78.20
2018-03-22T08:30:32.287Z,78.00
2018-03-22T08:33:00.428Z,78.10
2018-03-22T08:35:28.527Z,78.60
2018-03-22T08:37:56.683Z,78.60
2018-03-22T08:40:24.825Z,77.10
2018-03-22T08:42:52.945Z,77.90
2018-03-22T08:45:21.039Z,78.40
2018-03-22T08:47:49.835Z,77.40
2018-03-22T08:50:18.238Z,78.00
2018-03-22T08:52:46.321Z,78.40
2018-03-22T08:55:14.456Z,78.80
2018-03-22T08:57:42.574Z,79.30
2018-03-22T09:00:10.702Z,79.30
2018-03-22T09:02:38.788Z,78.40
2018-03-22T09:05:07.702Z,78.40
2018-03-22T09:07:35.802Z,78.40
2018-03-22T09:10:03.996Z,78.40
2018-03-22T09:12:32.107Z,78.60
2018-03-22T09:15:00.214Z,78.70
2018-03-22T09:17:28.330Z,78.60
2018-03-22T09:19:56.428Z,78.80
2018-03-22T09:22:24.565Z,78.40
2018-03-22T09:24:52.647Z,77.50
2018-03-22T09:27:20.748Z,76.60
2018-03-22T09:29:48.914Z,76.30
2018-03-22T09:32:17.152Z,77.20
2018-03-22T09:34:45.321Z,77.00
2018-03-22T09:37:13.485Z,76.80
2018-03-22T09:39:41.570Z,76.00
2018-03-22T09:42:10.311Z,75.90
2018-03-22T09:44:38.404Z,76.10
2018-03-22T09:47:06.595Z,76.50
2018-03-22T09:49:34.829Z,77.10
2018-03-22T09:52:03.009Z,76.80
2018-03-22T09:54:31.117Z,76.50
2018-03-22T09:56:59.276Z,75.80
2018-03-22T09:59:28.081Z,76.40
2018-03-22T10:01:56.189Z,76.40
2018-03-22T10:04:25.074Z,75.80
2018-03-22T10:06:53.199Z,75.80
2018-03-22T10:09:21.931Z,74.40
2018-03-22T10:11:50.076Z,74.80
2018-03-22T10:14:18.245Z,74.30
2018-03-22T10:16:46.387Z,74.10
2018-03-22T10:19:14.545Z,75.50
2018-03-22T10:21:42.690Z,75.50
2018-03-22T10:24:10.751Z,75.10
2018-03-22T10:26:38.903Z,74.50
2018-03-22T10:29:07.045Z,73.10
2018-03-22T10:31:35.174Z,73.20
2018-03-22T10:34:03.304Z,72.90
2018-03-22T10:36:31.408Z,73.40
2018-03-22T10:39:00.291Z,74.00
2018-03-22T10:41:28.410Z,73.70
2018-03-22T10:43:56.538Z,74.80
2018-03-22T10:46:24.620Z,75.10
2018-03-22T10:48:52.778Z,74.30
2018-03-22T10:51:20.968Z,74.00
2018-03-22T10:53:49.114Z,73.40
2018-03-22T10:56:17.258Z,73.70
2018-03-22T10:58:45.760Z,72.20
2018-03-22T11:01:19.286Z,70.70
2018-03-22T11:03:53.572Z,70.70
2018-03-22T11:06:21.691Z,71.10
2018-03-22T11:08:49.802Z,70.00
2018-03-22T11:11:17.937Z,70.40
2018-03-22T11:13:46.012Z,70.10
2018-03-22T11:16:14.895Z,65.60
2018-03-22T11:18:42.979Z,66.00
2018-03-22T11:21:11.839Z,69.20
2018-03-22T11:23:39.994Z,69.10
2018-03-22T11:26:17.001Z,70.30
2018-03-22T11:28:45.165Z,68.50
2018-03-22T11:31:13.381Z,67.00
2018-03-22T11:33:42.241Z,67.40
2018-03-22T11:36:10.347Z,67.40
2018-03-22T11:38:38.468Z,68.20
2018-03-22T11:41:06.575Z,69.10
2018-03-22T11:43:34.728Z,70.30
2018-03-22T11:46:02.909Z,67.30
2018-03-22T11:48:31.170Z,66.40
2018-03-22T11:50:59.391Z,66.70
2018-03-22T11:53:27.615Z,63.60
2018-03-22T11:55:55.777Z,62.90
2018-03-22T11:58:23.880Z,64.50
2018-03-22T12:00:52.050Z,66.10
2018-03-22T12:03:20.160Z,65.80
2018-03-22T12:05:48.278Z,66.60
2018-03-22T12:08:16.390Z,68.20
2018-03-22T12:10:44.510Z,67.20
2018-03-22T12:13:12.640Z,68.30
2018-03-22T12:15:40.758Z,65.90
2018-03-22T12:18:08.864Z,65.80
2018-03-22T12:20:37.044Z,62.50
2018-03-22T12:23:05.146Z,63.00
2018-03-22T12:25:33.296Z,61.40
2018-03-22T12:28:01.421Z,61.50
2018-03-22T12:30:29.521Z,61.30
2018-03-22T12:32:57.618Z,61.80
2018-03-22T12:35:25.734Z,64.50
2018-03-22T12:37:53.840Z,65.00
2018-03-22T12:40:21.983Z,63.80
2018-03-22T12:42:50.084Z,63.80
2018-03-22T12:45:18.173Z,63.90
2018-03-22T12:47:46.322Z,64.00
2018-03-22T12:50:14.425Z,65.60
2018-03-22T12:52:42.587Z,66.00
2018-03-22T12:55:10.695Z,64.10
2018-03-22T12:57:38.810Z,66.20
2018-03-22T13:00:06.974Z,67.00
2018-03-22T13:02:35.038Z,67.20
2018-03-22T13:05:03.140Z,66.30
2018-03-22T13:07:31.241Z,67.20
2018-03-22T13:10:00.179Z,67.80
2018-03-22T13:12:28.285Z,67.80
2018-03-22T13:14:56.416Z,67.40
2018-03-22T13:17:24.529Z,65.00
2018-03-22T13:19:52.657Z,62.20
2018-03-22T13:22:20.772Z,60.00
2018-03-22T13:24:48.886Z,60.60
2018-03-22T13:27:17.289Z,61.40
2018-03-22T13:29:45.408Z,60.00
2018-03-22T13:32:14.002Z,61.60
2018-03-22T13:34:42.868Z,61.80
2018-03-22T13:37:11.016Z,61.70
2018-03-22T13:39:39.140Z,63.00
2018-03-22T13:42:07.304Z,61.60
2018-03-22T13:44:35.456Z,62.80
2018-03-22T13:47:03.551Z,62.90
2018-03-22T13:49:31.677Z,65.20
2018-03-22T13:51:59.792Z,61.50
2018-03-22T13:54:28.874Z,59.60
2018-03-22T13:56:57.005Z,59.50
2018-03-22T13:59:25.117Z,61.20
2018-03-22T14:01:53.267Z,62.60
2018-03-22T14:04:21.983Z,63.50
2018-03-22T14:06:50.195Z,60.90
2018-03-22T14:09:18.299Z,62.10
2018-03-22T14:11:46.615Z,61.60
2018-03-22T14:14:14.833Z,63.40
2018-03-22T14:16:43.057Z,64.30
2018-03-22T14:19:11.253Z,62.30
2018-03-22T14:21:39.525Z,62.90
2018-03-22T14:24:07.868Z,61.80
2018-03-22T14:26:36.059Z,59.20
2018-03-22T14:29:04.949Z,61.70
2018-03-22T14:31:33.101Z,61.70
2018-03-22T14:34:01.222Z,62.10
2018-03-22T14:36:29.349Z,61.50
2018-03-22T14:38:57.450Z,59.40
2018-03-22T14:41:26.516Z,58.60
2018-03-22T14:43:54.757Z,58.50
2018-03-22T14:46:22.928Z,59.00
2018-03-22T14:48:51.038Z,60.70
2018-03-22T14:51:19.213Z,60.90
2018-03-22T14:53:47.320Z,62.10
2018-03-22T14:56:15.410Z,62.10
2018-03-22T14:58:43.556Z,59.90
2018-03-22T15:01:11.668Z,60.90
2018-03-22T15:03:39.805Z,62.10
2018-03-22T15:06:08.678Z,62.50
2018-03-22T15:08:36.834Z,62.50
2018-03-22T15:11:05.628Z,63.40
2018-03-22T15:13:33.802Z,64.50
2018-03-22T15:16:01.965Z,62.60
2018-03-22T15:18:30.092Z,61.90
2018-03-22T15:20:58.205Z,62.80
2018-03-22T15:23:26.292Z,62.80
2018-03-22T15:25:54.423Z,63.70
2018-03-22T15:28:22.579Z,61.90
2018-03-22T15:30:50.632Z,59.70
2018-03-22T15:33:18.738Z,58.60
2018-03-22T15:35:46.893Z,60.00
2018-03-22T15:38:15.001Z,61.10
2018-03-22T15:40:43.101Z,59.80
2018-03-22T15:43:11.829Z,58.10
2018-03-22T15:45:40.691Z,57.40
2018-03-22T15:48:08.809Z,57.40
2018-03-22T15:50:36.947Z,56.20
2018-03-22T15:53:05.054Z,57.10
2018-03-22T15:55:33.161Z,58.30
2018-03-22T15:58:01.288Z,58.30
2018-03-22T16:00:29.747Z,58.40
2018-03-22T16:02:58.600Z,58.40
2018-03-22T16:05:26.706Z,58.30
2018-03-22T16:07:56.414Z,59.20
2018-03-22T16:10:24.523Z,59.10
2018-03-22T16:12:52.784Z,58.50
2018-03-22T16:15:20.870Z,58.20
2018-03-22T16:17:48.986Z,58.40
2018-03-22T16:20:18.280Z,58.20
2018-03-22T16:22:46.597Z,57.50
2018-03-22T16:25:14.750Z,55.90
2018-03-22T16:27:42.889Z,56.80
2018-03-22T16:30:11.016Z,57.10
2018-03-22T16:32:39.176Z,57.80
2018-03-22T16:35:07.536Z,58.10
2018-03-22T16:37:35.716Z,57.30
2018-03-22T16:40:04.561Z,57.90
2018-03-22T16:42:32.686Z,57.30
2018-03-22T16:45:00.867Z,55.80
2018-03-22T16:47:31.725Z,57.50
2018-03-22T16:49:59.853Z,57.30
2018-03-22T16:52:28.011Z,58.10
2018-03-22T16:54:56.109Z,58.80
2018-03-22T16:57:24.234Z,59.40
2018-03-22T16:59:52.337Z,59.10
2018-03-22T17:02:20.458Z,59.50
2018-03-22T17:04:48.599Z,59.90
2018-03-22T17:07:16.705Z,60.10
2018-03-22T17:09:44.920Z,60.40
2018-03-22T17:12:13.196Z,61.10
2018-03-22T17:14:41.301Z,61.00
2018-03-22T17:17:10.158Z,61.10
2018-03-22T17:19:38.373Z,61.00
2018-03-22T17:22:07.650Z,61.60
2018-03-22T17:24:35.810Z,61.50
2018-03-22T17:27:04.093Z,61.50
2018-03-22T17:29:32.260Z,61.10
2018-03-22T17:32:00.500Z,61.60
2018-03-22T17:34:28.746Z,62.00
2018-03-22T17:36:56.950Z,62.70
2018-03-22T17:39:25.934Z,63.20
2018-03-22T17:41:54.109Z,63.20
2018-03-22T17:44:22.257Z,63.60
2018-03-22T17:46:51.133Z,64.70
2018-03-22T17:49:19.295Z,64.70
2018-03-22T17:51:47.471Z,65.30
2018-03-22T17:54:16.487Z,65.90
2018-03-22T17:56:44.722Z,65.90
2018-03-22T17:59:12.928Z,66.20
2018-03-22T18:01:41.201Z,66.70
2018-03-22T18:04:09.394Z,67.10
2018-03-22T18:06:37.497Z,67.40
2018-03-22T18:09:05.628Z,67.90
2018-03-22T18:11:33.778Z,68.20
2018-03-22T18:14:01.948Z,68.40
2018-03-22T18:16:30.100Z,68.70
2018-03-22T18:18:58.524Z,69.00
2018-03-22T18:21:26.675Z,69.20
2018-03-22T18:23:54.985Z,69.40
2018-03-22T18:26:25.093Z,69.70
2018-03-22T18:28:53.348Z,70.00
2018-03-22T18:31:21.520Z,70.30
2018-03-22T18:33:49.663Z,70.50
2018-03-22T18:36:18.269Z,70.70
2018-03-22T18:38:46.457Z,70.90
2018-03-22T18:41:14.792Z,71.10
2018-03-22T18:43:43.050Z,71.10
2018-03-22T18:46:12.753Z,71.30
2018-03-22T18:48:41.150Z,71.50
2018-03-22T18:51:09.404Z,71.70
2018-03-22T18:53:37.911Z,71.80
2018-03-22T18:56:06.797Z,72.00
2018-03-22T18:58:35.232Z,72.10
2018-03-22T19:01:03.559Z,72.10
2018-03-22T19:03:31.996Z,72.20
2018-03-22T19:06:00.197Z,72.40
2018-03-22T19:08:28.480Z,72.80
2018-03-22T19:11:00.733Z,72.60
2018-03-22T19:13:29.320Z,72.50
2018-03-22T19:15:57.563Z,72.70
2018-03-22T19:18:26.670Z,72.80
2018-03-22T19:20:54.950Z,73.00
2018-03-22T19:23:23.199Z,72.90
2018-03-22T19:25:51.529Z,73.10
2018-03-22T19:28:19.870Z,73.20
2018-03-22T19:30:48.127Z,73.10
2018-03-22T19:33:16.253Z,73.30
2018-03-22T19:35:44.570Z,73.30
2018-03-22T19:38:12.885Z,73.40
2018-03-22T19:40:45.946Z,73.50
2018-03-22T19:43:14.123Z,73.90
2018-03-22T19:45:43.255Z,74.10
2018-03-22T19:48:15.994Z,74.30
2018-03-22T19:50:45.541Z,74.20
2018-03-22T19:53:13.872Z,74.30
2018-03-22T20:08:37.963Z,73.10
2018-03-22T20:11:06.290Z,73.10
2018-03-22T20:13:34.468Z,73.90
2018-03-22T20:16:02.808Z,74.40
2018-03-22T20:18:32.066Z,75.10
2018-03-22T20:21:01.378Z,75.20
2018-03-22T20:23:29.854Z,75.20
2018-03-22T20:25:59.594Z,75.20
2018-03-22T20:28:29.008Z,75.30
2018-03-22T20:31:03.072Z,75.30
2018-03-22T20:33:35.320Z,75.40
2018-03-22T20:36:03.980Z,75.40
2018-03-22T20:38:33.963Z,75.30
2018-03-22T20:41:02.186Z,75.40
2018-03-22T20:43:31.731Z,75.30
2018-03-22T20:46:00.740Z,75.30
2018-03-22T20:48:29.428Z,75.40
2018-03-22T20:50:59.500Z,75.40
2018-03-22T20:53:28.708Z,75.30
2018-03-22T20:55:56.929Z,75.30
2018-03-22T21:11:20.638Z,75.10
2018-03-22T21:13:49.174Z,74.10
2018-03-22T21:16:18.605Z,74.70
2018-03-22T21:18:47.538Z,76.00
2018-03-22T21:21:15.758Z,75.50
2018-03-22T21:23:44.108Z,75.80
2018-03-22T21:26:12.407Z,75.90
2018-03-22T21:28:41.838Z,75.90
2018-03-22T21:31:11.259Z,75.90
2018-03-22T21:33:40.340Z,75.80
2018-03-22T21:36:08.762Z,75.90
2018-03-22T21:38:38.104Z,75.60
2018-03-22T21:41:06.546Z,75.50
2018-03-22T21:43:34.915Z,75.30
2018-03-22T21:46:04.147Z,75.50
2018-03-22T21:48:34.082Z,75.60
2018-03-22T21:51:02.355Z,75.40
2018-03-22T21:53:31.158Z,75.60
2018-03-22T21:56:00.121Z,75.40
2018-03-22T21:58:29.360Z,75.50
2018-03-22T22:00:57.969Z,75.60
2018-03-22T22:03:26.499Z,75.70
2018-03-22T22:05:54.597Z,75.60
2018-03-22T22:08:24.078Z,75.50
2018-03-22T22:10:53.329Z,75.60
2018-03-22T22:13:21.450Z,75.60
2018-03-22T22:15:49.599Z,75.60
2018-03-22T22:18:17.707Z,75.70
2018-03-22T22:20:45.845Z,75.90
2018-03-22T22:39:19.768Z,75.90
2018-03-22T22:41:47.893Z,75.90
2018-03-22T22:44:16.118Z,76.70
2018-03-22T22:46:44.322Z,77.20
2018-03-22T22:49:12.686Z,77.60
2018-03-22T22:51:40.863Z,78.50
2018-03-22T22:54:09.050Z,77.80
2018-03-22T22:56:41.371Z,77.90
2018-03-22T22:59:09.432Z,77.90
2018-03-22T23:01:37.594Z,77.90
2018-03-22T23:04:05.768Z,77.60
2018-03-22T23:06:33.920Z,77.90
2018-03-22T23:09:02.065Z,78.00
2018-03-22T23:11:30.189Z,77.80
2018-03-22T23:13:58.537Z,77.80
2018-03-22T23:16:26.656Z,77.80
2018-03-22T23:18:54.806Z,77.80
2018-03-22T23:21:23.053Z,77.80
2018-03-22T23:23:51.186Z,77.80
2018-03-22T23:26:19.329Z,77.90
2018-03-22T23:28:47.544Z,77.80
2018-03-22T23:31:20.799Z,78.00
2018-03-22T23:33:48.983Z,77.90
2018-03-22T23:36:17.111Z,77.90
2018-03-22T23:38:45.669Z,77.90
2018-03-22T23:41:13.806Z,77.90
2018-03-22T23:43:41.954Z,78.00
2018-03-22T23:46:10.197Z,77.90
2018-03-22T23:48:38.405Z,78.10
2018-03-22T23:51:06.563Z,78.20
2018-03-22T23:53:35.225Z,78.20
2018-03-22T23:56:03.333Z,78.20
2018-03-22T23:58:31.459Z,78.20
